createdAt,value
2022-11-15T00:01:12.078Z,83.50
2022-11-15T00:03:40.005Z,83.00
2022-11-15T00:06:08.094Z,83.10
2022-11-15T00:08:36.197Z,83.20
2022-11-15T00:11:05.101Z,82.90
2022-11-15T00:13:33.477Z,83.00
2022-11-15T00:16:03.619Z,83.90
2022-11-15T00:18:32.163Z,83.90
2022-11-15T00:21:06.285Z,83.90
2022-11-15T00:23:34.712Z,84.40
2022-11-15T00:26:02.914Z,84.40
2022-11-15T00:28:30.915Z,84.50
2022-11-15T00:31:04.013Z,84.80
2022-11-15T00:33:32.575Z,84.70
2022-11-15T00:36:05.419Z,84.70
2022-11-15T00:38:34.742Z,84.40
2022-11-15T00:41:09.042Z,85.00
2022-11-15T00:43:37.717Z,84.40
2022-11-15T00:46:09.100Z,84.50
2022-11-15T00:48:37.058Z,84.60
2022-11-15T00:51:05.130Z,84.90
2022-11-15T00:53:33.460Z,82.60
2022-11-15T00:56:01.583Z,81.80
2022-11-15T00:58:29.543Z,82.80
2022-11-15T01:00:57.666Z,84.00
2022-11-15T01:03:26.981Z,85.30
2022-11-15T01:05:54.867Z,85.50
2022-11-15T01:08:22.786Z,83.50
2022-11-15T01:10:50.750Z,82.10
2022-11-15T01:13:18.807Z,82.00
2022-11-15T01:15:47.037Z,82.10
2022-11-15T01:18:14.968Z,82.70
2022-11-15T01:20:44.865Z,82.40
2022-11-15T01:23:12.842Z,82.80
2022-11-15T01:25:40.727Z,82.80
2022-11-15T01:28:08.703Z,82.70
2022-11-15T01:30:38.382Z,82.00
2022-11-15T01:33:06.314Z,82.80
2022-11-15T01:35:34.199Z,83.30
2022-11-15T01:38:03.458Z,83.40
2022-11-15T01:40:31.399Z,83.50
2022-11-15T01:42:59.363Z,84.10
2022-11-15T01:45:27.969Z,84.40
2022-11-15T01:47:57.210Z,84.50
2022-11-15T01:50:30.563Z,83.90
2022-11-15T01:52:58.790Z,83.40
2022-11-15T01:55:29.876Z,83.20
2022-11-15T01:58:01.554Z,83.40
2022-11-15T02:00:30.214Z,83.60
2022-11-15T02:02:58.394Z,82.70
2022-11-15T02:05:26.617Z,82.20
2022-11-15T02:07:54.595Z,82.30
2022-11-15T02:10:24.567Z,82.60
2022-11-15T02:12:55.145Z,83.50
2022-11-15T02:15:23.714Z,84.10
2022-11-15T02:18:03.081Z,84.40
2022-11-15T02:20:50.774Z,82.90
2022-11-15T02:24:00.056Z,81.40
2022-11-15T02:27:15.747Z,82.50
2022-11-15T02:30:10.364Z,84.70
2022-11-15T02:32:46.273Z,83.20
2022-11-15T02:35:25.442Z,80.80
2022-11-15T02:37:58.142Z,82.00
2022-11-15T02:40:36.099Z,83.80
2022-11-15T02:43:28.485Z,84.40
2022-11-15T02:46:05.885Z,84.70
2022-11-15T02:48:36.412Z,85.00
2022-11-15T02:51:05.326Z,84.80
2022-11-15T02:53:33.485Z,82.80
2022-11-15T02:56:01.612Z,81.20
2022-11-15T02:58:50.575Z,81.20
2022-11-15T03:01:31.417Z,81.40
2022-11-15T03:04:10.228Z,81.10
2022-11-15T03:06:43.575Z,82.50
2022-11-15T03:09:20.036Z,82.60
2022-11-15T03:11:52.917Z,82.40
2022-11-15T03:14:25.765Z,82.90
2022-11-15T03:16:59.742Z,83.40
2022-11-15T03:19:34.279Z,83.10
2022-11-15T03:22:05.817Z,83.90
2022-11-15T03:24:35.709Z,83.80
2022-11-15T03:27:05.067Z,84.60
2022-11-15T03:29:38.185Z,83.60
2022-11-15T03:32:11.042Z,81.80
2022-11-15T03:34:46.233Z,79.80
2022-11-15T03:37:16.843Z,77.00
2022-11-15T03:39:45.341Z,78.40
2022-11-15T03:42:23.910Z,79.90
2022-11-15T03:45:00.202Z,80.30
2022-11-15T03:47:32.447Z,82.40
2022-11-15T03:50:05.181Z,83.00
2022-11-15T03:52:35.180Z,83.40
2022-11-15T03:55:05.589Z,83.00
2022-11-15T03:57:33.699Z,82.20
2022-11-15T04:00:01.623Z,80.40
2022-11-15T04:02:29.519Z,75.50
2022-11-15T04:04:57.622Z,78.00
2022-11-15T04:07:27.132Z,78.20
2022-11-15T04:10:04.144Z,79.00
2022-11-15T04:12:35.237Z,83.00
2022-11-15T04:15:11.426Z,84.00
2022-11-15T04:17:41.653Z,83.20
2022-11-15T04:20:29.689Z,82.90
2022-11-15T04:23:18.028Z,80.10
2022-11-15T04:25:46.805Z,77.20
2022-11-15T04:28:14.799Z,77.50
2022-11-15T04:30:42.725Z,78.50
2022-11-15T04:33:10.636Z,78.20
2022-11-15T04:35:38.499Z,79.10
2022-11-15T04:38:08.839Z,79.40
2022-11-15T04:40:36.912Z,79.30
2022-11-15T04:43:06.065Z,80.90
2022-11-15T04:45:33.978Z,82.20
2022-11-15T04:48:01.866Z,83.00
2022-11-15T04:50:29.705Z,82.90
2022-11-15T04:52:57.874Z,83.70
2022-11-15T04:55:27.083Z,84.10
2022-11-15T04:58:01.631Z,82.90
2022-11-15T05:00:31.390Z,79.70
2022-11-15T05:03:17.072Z,79.20
2022-11-15T05:05:44.968Z,79.50
2022-11-15T05:08:12.863Z,81.20
2022-11-15T05:10:42.070Z,79.50
2022-11-15T05:13:09.942Z,79.40
2022-11-15T05:15:37.787Z,78.50
2022-11-15T05:18:05.794Z,79.30
2022-11-15T05:20:33.787Z,77.00
2022-11-15T05:23:01.766Z,79.10
2022-11-15T05:25:30.092Z,79.80
2022-11-15T05:27:59.347Z,81.40
2022-11-15T05:30:27.247Z,82.70
2022-11-15T05:32:55.725Z,83.40
2022-11-15T05:35:29.275Z,84.10
2022-11-15T05:37:57.289Z,84.10
2022-11-15T05:40:26.144Z,83.40
2022-11-15T05:42:54.256Z,83.50
2022-11-15T05:45:26.896Z,83.50
2022-11-15T05:47:57.205Z,81.40
2022-11-15T05:50:25.701Z,78.70
2022-11-15T05:52:54.112Z,79.50
2022-11-15T05:55:22.235Z,80.10
2022-11-15T05:57:50.136Z,79.40
2022-11-15T06:00:18.569Z,79.40
2022-11-15T06:02:47.838Z,79.80
2022-11-15T06:05:15.913Z,81.60
2022-11-15T06:07:45.130Z,81.80
2022-11-15T06:10:13.610Z,81.70
2022-11-15T06:12:41.462Z,82.10
2022-11-15T06:15:10.514Z,82.30
2022-11-15T06:17:38.378Z,82.00
2022-11-15T06:20:08.596Z,83.20
2022-11-15T06:22:36.451Z,82.00
2022-11-15T06:25:05.752Z,79.90
2022-11-15T06:27:33.862Z,80.70
2022-11-15T06:30:01.741Z,80.50
2022-11-15T06:32:31.590Z,81.90
2022-11-15T06:34:59.529Z,81.70
2022-11-15T06:37:28.739Z,80.20
2022-11-15T06:39:56.615Z,82.60
2022-11-15T06:42:24.516Z,83.80
2022-11-15T06:44:52.393Z,83.80
2022-11-15T06:47:20.290Z,84.10
2022-11-15T06:49:48.163Z,83.90
2022-11-15T06:52:16.044Z,84.00
2022-11-15T06:54:45.310Z,83.80
2022-11-15T06:57:13.336Z,84.30
2022-11-15T06:59:41.335Z,84.40
2022-11-15T07:02:14.226Z,83.80
2022-11-15T07:04:42.232Z,81.80
2022-11-15T07:07:10.465Z,81.90
2022-11-15T07:09:38.447Z,81.30
2022-11-15T07:12:08.438Z,81.90
2022-11-15T07:14:36.539Z,83.00
2022-11-15T07:17:05.873Z,82.30
2022-11-15T07:19:34.050Z,82.20
2022-11-15T07:22:01.984Z,80.90
2022-11-15T07:24:29.865Z,77.70
2022-11-15T07:26:57.900Z,77.30
2022-11-15T07:29:27.354Z,75.40
2022-11-15T07:31:55.537Z,73.20
2022-11-15T07:34:24.679Z,66.40
2022-11-15T07:36:52.552Z,66.40
2022-11-15T07:39:20.451Z,67.50
2022-11-15T07:41:50.457Z,65.10
2022-11-15T07:44:18.404Z,64.90
2022-11-15T07:46:47.612Z,63.00
2022-11-15T07:49:15.502Z,61.30
2022-11-15T07:51:43.353Z,60.00
2022-11-15T07:54:11.289Z,61.70
2022-11-15T07:56:40.072Z,61.20
2022-11-15T07:59:07.992Z,61.50
2022-11-15T08:01:36.036Z,60.60
2022-11-15T08:04:05.650Z,60.20
2022-11-15T08:06:33.564Z,60.20
2022-11-15T08:09:01.599Z,60.50
2022-11-15T08:11:29.611Z,61.70
2022-11-15T08:13:57.584Z,61.60
2022-11-15T08:16:25.488Z,61.60
2022-11-15T08:18:53.357Z,62.40
2022-11-15T08:21:23.475Z,64.30
2022-11-15T08:23:52.739Z,64.50
2022-11-15T08:26:20.636Z,64.90
2022-11-15T08:28:48.676Z,64.20
2022-11-15T08:31:18.726Z,67.30
2022-11-15T08:33:47.198Z,68.40
2022-11-15T08:36:17.127Z,69.30
2022-11-15T08:38:46.370Z,69.40
2022-11-15T08:41:24.059Z,69.70
2022-11-15T08:43:52.186Z,70.20
2022-11-15T08:46:20.296Z,70.20
2022-11-15T08:48:48.179Z,70.50
2022-11-15T08:51:16.197Z,69.40
2022-11-15T08:53:44.468Z,69.50
2022-11-15T08:56:15.602Z,69.00
2022-11-15T08:58:44.499Z,69.70
2022-11-15T09:01:19.040Z,67.00
2022-11-15T09:03:47.179Z,65.40
2022-11-15T09:06:15.824Z,65.10
2022-11-15T09:08:48.124Z,65.30
2022-11-15T09:11:21.143Z,66.60
2022-11-15T09:13:49.383Z,65.90
2022-11-15T09:16:17.312Z,63.20
2022-11-15T09:18:45.255Z,63.00
2022-11-15T09:21:13.556Z,61.70
2022-11-15T09:23:41.710Z,61.40
2022-11-15T09:26:09.924Z,60.20
2022-11-15T09:28:42.772Z,59.40
2022-11-15T09:31:11.145Z,58.80
2022-11-15T09:33:39.419Z,59.00
2022-11-15T09:36:09.715Z,58.80
2022-11-15T09:38:37.835Z,58.40
2022-11-15T09:42:00.014Z,58.00
2022-11-15T09:44:53.334Z,57.50
2022-11-15T09:47:51.745Z,57.90
2022-11-15T09:50:30.848Z,56.40
2022-11-15T09:52:58.801Z,56.60
2022-11-15T09:55:36.963Z,55.80
2022-11-15T09:58:17.873Z,55.40
2022-11-15T10:00:53.181Z,54.60
2022-11-15T10:03:28.003Z,53.50
2022-11-15T10:05:59.766Z,53.10
2022-11-15T10:08:37.777Z,53.70
2022-11-15T10:13:59.719Z,51.80
2022-11-15T10:17:06.445Z,51.50
2022-11-15T10:19:41.982Z,49.10
2022-11-15T10:22:27.793Z,48.60
2022-11-15T10:25:17.912Z,48.60
2022-11-15T10:27:49.420Z,48.70
2022-11-15T10:30:19.186Z,49.10
2022-11-15T10:32:50.313Z,48.90
2022-11-15T10:35:22.814Z,50.70
2022-11-15T10:37:50.898Z,50.20
2022-11-15T10:40:24.359Z,48.50
2022-11-15T10:43:08.050Z,48.20
2022-11-15T10:45:36.455Z,50.10
2022-11-15T10:48:23.828Z,48.60
2022-11-15T10:50:54.953Z,49.40
2022-11-15T10:53:33.805Z,49.30
2022-11-15T10:56:05.321Z,49.10
2022-11-15T10:58:40.779Z,46.90
2022-11-15T11:01:14.212Z,47.00
2022-11-15T11:03:43.779Z,48.40
2022-11-15T11:06:15.490Z,48.10
2022-11-15T11:08:56.733Z,47.70
2022-11-15T11:11:24.767Z,48.10
2022-11-15T11:13:52.790Z,48.80
2022-11-15T11:16:43.415Z,49.70
2022-11-15T11:19:33.012Z,49.70
2022-11-15T11:22:11.312Z,51.00
2022-11-15T11:24:46.433Z,50.80
2022-11-15T11:27:31.101Z,51.30
2022-11-15T11:30:06.244Z,51.70
2022-11-15T11:32:53.870Z,52.70
2022-11-15T11:35:29.841Z,53.40
2022-11-15T11:38:16.147Z,52.50
2022-11-15T11:41:01.304Z,52.50
2022-11-15T11:43:38.928Z,52.50
2022-11-15T11:46:30.785Z,52.80
2022-11-15T11:49:04.994Z,53.40
2022-11-15T11:51:40.433Z,54.10
2022-11-15T11:54:15.095Z,54.20
2022-11-15T11:56:46.418Z,53.30
2022-11-15T11:59:25.341Z,52.70
2022-11-15T12:01:53.732Z,53.20
2022-11-15T12:04:25.793Z,52.70
2022-11-15T12:06:58.766Z,52.80
2022-11-15T12:09:33.079Z,52.70
2022-11-15T12:12:08.639Z,52.50
2022-11-15T12:14:43.148Z,52.10
2022-11-15T12:17:12.112Z,51.60
2022-11-15T12:19:40.231Z,52.50
2022-11-15T12:22:14.457Z,52.50
2022-11-15T12:24:47.161Z,53.10
2022-11-15T12:27:26.125Z,53.40
2022-11-15T12:29:58.938Z,53.20
2022-11-15T12:32:31.352Z,53.70
2022-11-15T12:35:01.053Z,54.10
2022-11-15T12:37:51.184Z,54.10
2022-11-15T12:40:27.523Z,53.40
2022-11-15T12:43:39.717Z,53.30
2022-11-15T12:46:13.389Z,52.50
2022-11-15T12:48:59.800Z,52.50
2022-11-15T12:52:00.606Z,54.20
2022-11-15T12:54:54.604Z,54.80
2022-11-15T12:57:39.648Z,55.00
2022-11-15T13:00:49.048Z,54.50
2022-11-15T13:03:25.772Z,55.40
2022-11-15T13:06:32.987Z,53.80
2022-11-15T13:09:00.865Z,53.20
2022-11-15T13:11:48.657Z,52.50
2022-11-15T13:14:44.251Z,52.50
2022-11-15T13:17:31.830Z,53.10
2022-11-15T13:20:28.156Z,53.00
2022-11-15T13:23:03.927Z,53.90
2022-11-15T13:26:11.205Z,54.50
2022-11-15T13:28:44.110Z,54.00
2022-11-15T13:31:29.881Z,54.40
2022-11-15T13:34:01.935Z,54.20
2022-11-15T13:36:34.012Z,55.90
2022-11-15T13:39:04.645Z,56.60
2022-11-15T13:41:34.369Z,55.70
2022-11-15T13:44:03.541Z,55.80
2022-11-15T13:46:33.955Z,57.10
2022-11-15T13:49:04.140Z,55.90
2022-11-15T13:51:39.420Z,55.90
2022-11-15T13:54:18.834Z,56.50
2022-11-15T13:56:49.953Z,56.60
2022-11-15T13:59:27.837Z,55.60
2022-11-15T14:01:59.542Z,55.90
2022-11-15T14:04:30.792Z,55.50
2022-11-15T14:07:00.932Z,56.10
2022-11-15T14:09:37.833Z,56.50
2022-11-15T14:12:25.696Z,56.60
2022-11-15T14:14:53.874Z,56.60
2022-11-15T14:17:35.182Z,56.90
2022-11-15T14:20:03.626Z,56.60
2022-11-15T14:22:32.558Z,56.80
2022-11-15T14:25:20.826Z,57.20
2022-11-15T14:28:11.003Z,56.50
2022-11-15T14:30:40.088Z,57.20
2022-11-15T14:33:22.192Z,56.50
2022-11-15T14:35:50.369Z,56.70
2022-11-15T14:38:18.394Z,56.80
2022-11-15T14:40:46.794Z,57.20
2022-11-15T14:43:15.380Z,57.30
2022-11-15T14:45:43.466Z,58.00
2022-11-15T14:48:11.438Z,58.00
2022-11-15T14:50:40.782Z,58.00
2022-11-15T14:53:09.131Z,59.00
2022-11-15T14:55:37.912Z,59.80
2022-11-15T14:58:08.722Z,59.70
2022-11-15T15:00:37.617Z,59.70
2022-11-15T15:03:07.132Z,59.80
2022-11-15T15:05:36.545Z,60.40
2022-11-15T15:08:06.443Z,60.50
2022-11-15T15:10:40.766Z,61.10
2022-11-15T15:13:16.767Z,61.40
2022-11-15T15:15:44.687Z,62.00
2022-11-15T15:18:12.668Z,62.30
2022-11-15T15:20:41.948Z,62.50
2022-11-15T15:23:17.829Z,62.80
2022-11-15T15:25:47.121Z,63.40
2022-11-15T15:28:15.517Z,63.50
2022-11-15T15:30:43.878Z,63.70
2022-11-15T15:33:11.794Z,64.20
2022-11-15T15:35:39.851Z,64.30
2022-11-15T15:38:07.926Z,64.70
2022-11-15T15:40:37.206Z,64.70
2022-11-15T15:43:05.134Z,65.10
2022-11-15T15:45:34.213Z,65.70
2022-11-15T15:48:02.120Z,66.10
2022-11-15T15:50:31.504Z,66.20
2022-11-15T15:53:01.609Z,66.40
2022-11-15T15:55:30.624Z,66.50
2022-11-15T15:58:00.167Z,68.00
2022-11-15T16:00:28.188Z,68.70
2022-11-15T16:02:56.423Z,69.40
2022-11-15T16:05:24.683Z,69.60
2022-11-15T16:07:52.994Z,70.00
2022-11-15T16:10:25.778Z,69.90
2022-11-15T16:12:54.362Z,70.40
2022-11-15T16:15:25.389Z,70.50
2022-11-15T16:17:55.244Z,70.00
2022-11-15T16:20:31.848Z,69.10
2022-11-15T16:23:04.346Z,69.40
2022-11-15T16:25:39.647Z,69.80
2022-11-15T16:28:14.065Z,70.40
2022-11-15T16:30:43.459Z,71.00
2022-11-15T16:33:11.350Z,71.40
2022-11-15T16:35:39.258Z,71.60
2022-11-15T16:38:07.119Z,71.60
2022-11-15T16:40:36.067Z,71.60
2022-11-15T16:43:06.430Z,72.10
2022-11-15T16:45:36.391Z,72.30
2022-11-15T16:48:06.161Z,72.40
2022-11-15T16:50:40.855Z,72.60
2022-11-15T16:53:08.881Z,72.90
2022-11-15T16:55:36.765Z,73.50
2022-11-15T16:58:04.730Z,73.60
2022-11-15T17:00:32.978Z,74.10
2022-11-15T17:03:00.968Z,74.50
2022-11-15T17:05:30.845Z,74.80
2022-11-15T17:07:58.770Z,75.00
2022-11-15T17:10:28.256Z,73.50
2022-11-15T17:12:57.269Z,74.90
2022-11-15T17:15:25.502Z,74.30
2022-11-15T17:17:54.263Z,74.90
2022-11-15T17:20:24.293Z,75.40
2022-11-15T17:22:53.685Z,73.90
2022-11-15T17:25:21.884Z,74.10
2022-11-15T17:27:49.774Z,75.20
2022-11-15T17:30:18.722Z,75.60
2022-11-15T17:32:47.883Z,76.10
2022-11-15T17:35:16.195Z,72.80
2022-11-15T17:37:44.406Z,73.30
2022-11-15T17:40:13.978Z,74.20
2022-11-15T17:42:42.624Z,74.40
2022-11-15T17:45:12.002Z,74.00
2022-11-15T17:47:39.947Z,74.90
2022-11-15T17:50:08.037Z,74.90
2022-11-15T17:52:35.934Z,74.80
2022-11-15T17:55:03.896Z,75.20
2022-11-15T17:57:33.125Z,75.80
2022-11-15T18:00:01.038Z,75.80
2022-11-15T18:02:28.953Z,75.60
2022-11-15T18:04:56.816Z,75.60
2022-11-15T18:07:24.804Z,75.90
2022-11-15T18:09:53.795Z,76.60
2022-11-15T18:12:21.733Z,76.80
2022-11-15T18:14:50.985Z,77.60
2022-11-15T18:17:19.255Z,76.60
2022-11-15T18:19:48.579Z,76.50
2022-11-15T18:22:16.495Z,77.60
2022-11-15T18:24:44.871Z,78.00
2022-11-15T18:27:12.780Z,77.90
2022-11-15T18:29:40.645Z,78.00
2022-11-15T18:32:12.586Z,78.00
2022-11-15T18:34:40.979Z,78.00
2022-11-15T18:37:09.227Z,78.90
2022-11-15T18:39:37.760Z,79.40
2022-11-15T18:42:06.210Z,80.00
2022-11-15T18:44:34.449Z,80.00
2022-11-15T18:47:02.371Z,79.00
2022-11-15T18:49:31.744Z,79.30
2022-11-15T18:51:59.642Z,78.60
2022-11-15T18:54:31.339Z,78.90
2022-11-15T18:56:59.977Z,79.20
2022-11-15T18:59:28.161Z,79.10
2022-11-15T19:01:56.947Z,79.70
2022-11-15T19:04:24.876Z,79.60
2022-11-15T19:06:54.323Z,79.60
2022-11-15T19:09:22.329Z,79.70
2022-11-15T19:11:51.517Z,79.50
2022-11-15T19:14:23.868Z,78.10
2022-11-15T19:16:52.861Z,77.70
2022-11-15T19:19:22.773Z,78.00
2022-11-15T19:21:50.714Z,77.90
2022-11-15T19:24:20.227Z,77.90
2022-11-15T19:26:48.408Z,78.80
2022-11-15T19:29:17.206Z,79.30
2022-11-15T19:31:45.354Z,80.10
2022-11-15T19:34:13.484Z,80.30
2022-11-15T19:36:43.028Z,80.00
2022-11-15T19:39:13.092Z,80.20
2022-11-15T19:41:44.067Z,80.60
2022-11-15T19:44:12.692Z,80.60
2022-11-15T19:46:40.706Z,80.40
2022-11-15T19:49:10.790Z,80.50
2022-11-15T19:51:41.471Z,80.60
2022-11-15T19:54:10.521Z,80.70
2022-11-15T19:56:39.782Z,81.00
2022-11-15T19:59:11.501Z,80.80
2022-11-15T20:01:39.817Z,80.10
2022-11-15T20:04:10.057Z,79.40
2022-11-15T20:06:41.526Z,79.60
2022-11-15T20:09:12.882Z,80.20
2022-11-15T20:11:40.726Z,79.10
2022-11-15T20:14:11.686Z,78.10
2022-11-15T20:16:40.155Z,79.50
2022-11-15T20:19:08.738Z,79.20
2022-11-15T20:21:36.982Z,79.50
2022-11-15T20:24:05.340Z,80.40
2022-11-15T20:26:33.348Z,80.50
2022-11-15T20:29:03.155Z,80.80
2022-11-15T20:31:32.996Z,80.00
2022-11-15T20:34:01.185Z,80.40
2022-11-15T20:36:29.355Z,80.50
2022-11-15T20:39:01.068Z,80.20
2022-11-15T20:41:29.220Z,80.00
2022-11-15T20:43:57.427Z,80.20
2022-11-15T20:46:25.329Z,80.60
2022-11-15T20:48:54.580Z,80.70
2022-11-15T20:51:22.501Z,80.30
2022-11-15T20:53:50.401Z,80.30
2022-11-15T20:56:20.283Z,80.00
2022-11-15T20:58:50.298Z,79.30
2022-11-15T21:01:23.396Z,80.00
2022-11-15T21:03:52.465Z,80.40
2022-11-15T21:06:22.062Z,81.10
2022-11-15T21:09:07.912Z,81.60
2022-11-15T21:11:53.513Z,82.00
2022-11-15T21:14:21.784Z,82.00
2022-11-15T21:16:49.716Z,81.80
2022-11-15T21:19:19.060Z,81.70
2022-11-15T21:21:49.953Z,81.70
2022-11-15T21:24:18.175Z,81.90
2022-11-15T21:26:46.019Z,81.70
2022-11-15T21:29:17.032Z,81.60
2022-11-15T21:31:44.977Z,81.70
2022-11-15T21:34:12.881Z,81.80
2022-11-15T21:36:40.956Z,82.00
2022-11-15T21:39:10.294Z,82.10
2022-11-15T21:41:38.221Z,81.40
2022-11-15T21:44:06.882Z,82.00
2022-11-15T21:46:37.062Z,81.10
2022-11-15T21:49:06.298Z,81.10
2022-11-15T21:51:34.844Z,81.00
2022-11-15T21:54:02.971Z,81.10
2022-11-15T21:56:32.576Z,80.60
2022-11-15T21:59:01.028Z,81.20
2022-11-15T22:01:46.985Z,82.40
2022-11-15T22:04:15.182Z,82.80
2022-11-15T22:06:43.332Z,82.80
2022-11-15T22:09:11.212Z,82.80
2022-11-15T22:11:40.638Z,81.90
2022-11-15T22:14:08.724Z,82.50
2022-11-15T22:16:37.610Z,81.90
2022-11-15T22:19:05.704Z,82.30
2022-11-15T22:21:33.843Z,82.50
2022-11-15T22:24:02.019Z,82.90
2022-11-15T22:26:29.975Z,82.90
2022-11-15T22:28:59.273Z,82.90
2022-11-15T22:31:27.392Z,82.90
2022-11-15T22:33:55.302Z,82.90
2022-11-15T22:36:26.139Z,83.60
2022-11-15T22:38:56.554Z,82.90
2022-11-15T22:41:24.494Z,83.40
2022-11-15T22:43:52.465Z,83.00
2022-11-15T22:46:21.829Z,82.70
2022-11-15T22:48:49.978Z,81.50
2022-11-15T22:51:18.016Z,81.50
2022-11-15T22:53:45.935Z,81.70
2022-11-15T22:56:19.034Z,82.50
2022-11-15T22:58:48.403Z,82.90
2022-11-15T23:01:22.837Z,82.90
2022-11-15T23:03:50.948Z,82.60
2022-11-15T23:06:18.974Z,82.10
2022-11-15T23:08:46.962Z,81.40
2022-11-15T23:11:32.552Z,80.80
2022-11-15T23:14:00.483Z,81.60
2022-11-15T23:16:35.620Z,81.60
2022-11-15T23:19:06.631Z,81.50
2022-11-15T23:21:53.858Z,81.10
2022-11-15T23:24:22.270Z,81.10
2022-11-15T23:26:56.096Z,81.40
2022-11-15T23:29:25.799Z,81.30
2022-11-15T23:32:14.001Z,81.50
2022-11-15T23:34:43.794Z,81.40
2022-11-15T23:37:14.547Z,82.00
2022-11-15T23:39:42.481Z,82.30
2022-11-15T23:42:19.601Z,82.80
2022-11-15T23:44:49.953Z,82.60
2022-11-15T23:47:19.507Z,82.00
2022-11-15T23:49:47.494Z,81.90
2022-11-15T23:52:16.431Z,82.30
2022-11-15T23:54:44.429Z,82.80
2022-11-15T23:57:12.761Z,82.90
2022-11-15T23:59:40.794Z,82.90
